sensor_id;sensor_type;location;lat;lon;timestamp;temperature;humidity
67273;DHT22;54190;49.770;9.250;2023-03-22T00:00:54;5.90;99.90
67273;DHT22;54190;49.770;9.250;2023-03-22T00:03:20;5.80;99.90
67273;DHT22;54190;49.770;9.250;2023-03-22T00:05:46;5.80;99.90
67273;DHT22;54190;49.770;9.250;2023-03-22T00:08:12;5.80;99.90
67273;DHT22;54190;49.770;9.250;2023-03-22T00:10:40;5.80;99.90
67273;DHT22;54190;49.770;9.250;2023-03-22T00:13:08;5.90;99.90
67273;DHT22;54190;49.770;9.250;2023-03-22T00:15:34;6.00;99.90
67273;DHT22;54190;49.770;9.250;2023-03-22T00:18:00;6.00;99.90
67273;DHT22;54190;49.770;9.250;2023-03-22T00:20:31;6.00;99.90
67273;DHT22;54190;49.770;9.250;2023-03-22T00:22:58;6.00;99.90
67273;DHT22;54190;49.770;9.250;2023-03-22T00:25:25;6.10;99.90
67273;DHT22;54190;49.770;9.250;2023-03-22T00:27:50;6.10;99.90
67273;DHT22;54190;49.770;9.250;2023-03-22T00:30:16;6.10;99.90
67273;DHT22;54190;49.770;9.250;2023-03-22T00:32:43;6.20;99.90
67273;DHT22;54190;49.770;9.250;2023-03-22T00:35:09;6.20;99.90
67273;DHT22;54190;49.770;9.250;2023-03-22T00:37:36;6.30;99.90
67273;DHT22;54190;49.770;9.250;2023-03-22T00:40:04;6.30;99.90
67273;DHT22;54190;49.770;9.250;2023-03-22T00:42:35;6.30;99.90
67273;DHT22;54190;49.770;9.250;2023-03-22T00:45:01;6.30;99.90
67273;DHT22;54190;49.770;9.250;2023-03-22T00:47:26;6.40;99.90
67273;DHT22;54190;49.770;9.250;2023-03-22T00:49:52;6.40;99.90
67273;DHT22;54190;49.770;9.250;2023-03-22T00:52:18;6.40;99.90
67273;DHT22;54190;49.770;9.250;2023-03-22T00:54:43;6.40;99.90
67273;DHT22;54190;49.770;9.250;2023-03-22T00:57:09;6.40;99.90
67273;DHT22;54190;49.770;9.250;2023-03-22T00:59:37;6.40;99.90
67273;DHT22;54190;49.770;9.250;2023-03-22T01:02:05;6.40;99.90
67273;DHT22;54190;49.770;9.250;2023-03-22T01:04:32;6.50;99.90
67273;DHT22;54190;49.770;9.250;2023-03-22T01:07:01;6.50;99.90
67273;DHT22;54190;49.770;9.250;2023-03-22T01:09:29;6.60;99.90
67273;DHT22;54190;49.770;9.250;2023-03-22T01:11:56;6.60;99.90
67273;DHT22;54190;49.770;9.250;2023-03-22T01:14:24;6.70;99.90
67273;DHT22;54190;49.770;9.250;2023-03-22T01:16:51;6.70;99.90
67273;DHT22;54190;49.770;9.250;2023-03-22T01:19:19;6.70;99.90
67273;DHT22;54190;49.770;9.250;2023-03-22T01:21:45;6.80;99.90
67273;DHT22;54190;49.770;9.250;2023-03-22T01:24:11;6.80;99.90
67273;DHT22;54190;49.770;9.250;2023-03-22T01:26:37;6.80;99.90
67273;DHT22;54190;49.770;9.250;2023-03-22T01:29:04;6.90;99.90
67273;DHT22;54190;49.770;9.250;2023-03-22T01:31:30;6.90;99.90
67273;DHT22;54190;49.770;9.250;2023-03-22T01:33:55;6.90;99.90
67273;DHT22;54190;49.770;9.250;2023-03-22T01:36:22;6.90;99.90
67273;DHT22;54190;49.770;9.250;2023-03-22T01:38:47;6.80;99.90
67273;DHT22;54190;49.770;9.250;2023-03-22T01:41:15;6.70;99.90
67273;DHT22;54190;49.770;9.250;2023-03-22T01:43:41;6.70;99.90
67273;DHT22;54190;49.770;9.250;2023-03-22T01:46:07;6.60;99.90
67273;DHT22;54190;49.770;9.250;2023-03-22T01:48:42;6.50;99.90
67273;DHT22;54190;49.770;9.250;2023-03-22T01:51:14;6.50;99.90
67273;DHT22;54190;49.770;9.250;2023-03-22T01:53:58;6.50;99.90
67273;DHT22;54190;49.770;9.250;2023-03-22T01:56:28;6.60;99.90
67273;DHT22;54190;49.770;9.250;2023-03-22T01:58:55;6.60;99.90
67273;DHT22;54190;49.770;9.250;2023-03-22T02:01:29;6.60;99.90
67273;DHT22;54190;49.770;9.250;2023-03-22T02:04:03;6.70;99.90
67273;DHT22;54190;49.770;9.250;2023-03-22T02:06:33;6.70;99.90
67273;DHT22;54190;49.770;9.250;2023-03-22T02:09:10;6.70;99.90
67273;DHT22;54190;49.770;9.250;2023-03-22T02:11:42;6.70;99.90
67273;DHT22;54190;49.770;9.250;2023-03-22T02:18:17;6.60;99.90
67273;DHT22;54190;49.770;9.250;2023-03-22T02:26:00;6.30;99.90
67273;DHT22;54190;49.770;9.250;2023-03-22T02:28:41;6.30;99.90
67273;DHT22;54190;49.770;9.250;2023-03-22T02:40:40;6.20;99.90
67273;DHT22;54190;49.770;9.250;2023-03-22T02:43:28;6.30;99.90
67273;DHT22;54190;49.770;9.250;2023-03-22T02:46:29;6.30;99.90
67273;DHT22;54190;49.770;9.250;2023-03-22T02:49:19;6.30;99.90
67273;DHT22;54190;49.770;9.250;2023-03-22T02:51:53;6.20;99.90
67273;DHT22;54190;49.770;9.250;2023-03-22T02:54:39;6.20;99.90
67273;DHT22;54190;49.770;9.250;2023-03-22T02:57:12;6.20;99.90
67273;DHT22;54190;49.770;9.250;2023-03-22T02:59:41;6.20;99.90
67273;DHT22;54190;49.770;9.250;2023-03-22T03:02:10;6.20;99.90
67273;DHT22;54190;49.770;9.250;2023-03-22T03:04:44;6.20;99.90
67273;DHT22;54190;49.770;9.250;2023-03-22T03:07:13;6.30;99.90
67273;DHT22;54190;49.770;9.250;2023-03-22T03:09:40;6.30;99.90
67273;DHT22;54190;49.770;9.250;2023-03-22T03:12:23;6.40;99.90
67273;DHT22;54190;49.770;9.250;2023-03-22T03:14:52;6.40;99.90
67273;DHT22;54190;49.770;9.250;2023-03-22T03:25:31;6.60;99.90
67273;DHT22;54190;49.770;9.250;2023-03-22T03:32:00;6.60;99.90
67273;DHT22;54190;49.770;9.250;2023-03-22T03:36:59;6.60;99.90
67273;DHT22;54190;49.770;9.250;2023-03-22T03:39:30;6.50;99.90
67273;DHT22;54190;49.770;9.250;2023-03-22T03:41:57;6.60;99.90
67273;DHT22;54190;49.770;9.250;2023-03-22T03:44:25;6.60;99.90
67273;DHT22;54190;49.770;9.250;2023-03-22T03:46:52;6.60;99.90
67273;DHT22;54190;49.770;9.250;2023-03-22T03:49:21;6.60;99.90
67273;DHT22;54190;49.770;9.250;2023-03-22T03:51:50;6.70;99.90
67273;DHT22;54190;49.770;9.250;2023-03-22T03:54:16;6.60;99.90
67273;DHT22;54190;49.770;9.250;2023-03-22T03:56:42;6.60;99.90
67273;DHT22;54190;49.770;9.250;2023-03-22T03:59:08;6.60;99.90
67273;DHT22;54190;49.770;9.250;2023-03-22T04:01:34;6.60;99.90
67273;DHT22;54190;49.770;9.250;2023-03-22T04:04:12;6.50;99.90
67273;DHT22;54190;49.770;9.250;2023-03-22T04:06:57;6.50;99.90
67273;DHT22;54190;49.770;9.250;2023-03-22T04:09:31;6.60;99.90
67273;DHT22;54190;49.770;9.250;2023-03-22T04:12:05;6.60;99.90
67273;DHT22;54190;49.770;9.250;2023-03-22T04:14:34;6.70;99.90
67273;DHT22;54190;49.770;9.250;2023-03-22T04:17:06;6.70;99.90
67273;DHT22;54190;49.770;9.250;2023-03-22T04:19:32;6.70;99.90
67273;DHT22;54190;49.770;9.250;2023-03-22T04:21:58;6.80;99.90
67273;DHT22;54190;49.770;9.250;2023-03-22T04:24:25;6.80;99.90
67273;DHT22;54190;49.770;9.250;2023-03-22T04:26:51;6.80;99.90
67273;DHT22;54190;49.770;9.250;2023-03-22T04:29:37;6.90;99.90
67273;DHT22;54190;49.770;9.250;2023-03-22T04:32:23;6.90;99.90
67273;DHT22;54190;49.770;9.250;2023-03-22T04:34:50;6.80;99.90
67273;DHT22;54190;49.770;9.250;2023-03-22T04:37:18;6.90;99.90
67273;DHT22;54190;49.770;9.250;2023-03-22T04:40:08;6.90;99.90
67273;DHT22;54190;49.770;9.250;2023-03-22T04:42:57;6.90;99.90
67273;DHT22;54190;49.770;9.250;2023-03-22T04:45:46;6.90;99.90
67273;DHT22;54190;49.770;9.250;2023-03-22T04:48:16;6.90;99.90
67273;DHT22;54190;49.770;9.250;2023-03-22T04:50:46;6.90;99.90
67273;DHT22;54190;49.770;9.250;2023-03-22T04:53:11;6.90;99.90
67273;DHT22;54190;49.770;9.250;2023-03-22T04:55:37;6.90;99.90
67273;DHT22;54190;49.770;9.250;2023-03-22T04:58:03;6.90;99.90
67273;DHT22;54190;49.770;9.250;2023-03-22T05:00:29;6.90;99.90
67273;DHT22;54190;49.770;9.250;2023-03-22T05:02:56;6.90;99.90
67273;DHT22;54190;49.770;9.250;2023-03-22T05:05:31;6.90;99.90
67273;DHT22;54190;49.770;9.250;2023-03-22T05:07:57;6.80;99.90
67273;DHT22;54190;49.770;9.250;2023-03-22T05:10:24;6.90;99.90
67273;DHT22;54190;49.770;9.250;2023-03-22T05:12:50;6.90;99.90
67273;DHT22;54190;49.770;9.250;2023-03-22T05:15:41;6.90;99.90
67273;DHT22;54190;49.770;9.250;2023-03-22T05:18:08;6.90;99.90
67273;DHT22;54190;49.770;9.250;2023-03-22T05:20:36;6.90;99.90
67273;DHT22;54190;49.770;9.250;2023-03-22T05:23:16;6.90;99.90
67273;DHT22;54190;49.770;9.250;2023-03-22T05:25:51;6.90;99.90
67273;DHT22;54190;49.770;9.250;2023-03-22T05:28:18;6.90;99.90
67273;DHT22;54190;49.770;9.250;2023-03-22T05:31:04;7.00;99.90
67273;DHT22;54190;49.770;9.250;2023-03-22T05:33:41;7.00;99.90
67273;DHT22;54190;49.770;9.250;2023-03-22T05:36:09;7.00;99.90
67273;DHT22;54190;49.770;9.250;2023-03-22T05:38:45;7.00;99.90
67273;DHT22;54190;49.770;9.250;2023-03-22T05:41:12;7.10;99.90
67273;DHT22;54190;49.770;9.250;2023-03-22T05:43:37;7.10;99.90
67273;DHT22;54190;49.770;9.250;2023-03-22T05:46:05;7.10;99.90
67273;DHT22;54190;49.770;9.250;2023-03-22T05:48:40;7.10;99.90
67273;DHT22;54190;49.770;9.250;2023-03-22T05:51:11;7.20;99.90
67273;DHT22;54190;49.770;9.250;2023-03-22T05:53:43;7.20;99.90
67273;DHT22;54190;49.770;9.250;2023-03-22T05:56:13;7.30;99.90
67273;DHT22;54190;49.770;9.250;2023-03-22T05:58:41;7.30;99.90
67273;DHT22;54190;49.770;9.250;2023-03-22T06:01:11;7.30;99.90
67273;DHT22;54190;49.770;9.250;2023-03-22T06:03:47;7.30;99.90
67273;DHT22;54190;49.770;9.250;2023-03-22T06:06:33;7.40;99.90
67273;DHT22;54190;49.770;9.250;2023-03-22T06:09:09;7.40;99.90
67273;DHT22;54190;49.770;9.250;2023-03-22T06:11:37;7.40;99.90
67273;DHT22;54190;49.770;9.250;2023-03-22T06:14:04;7.50;99.90
67273;DHT22;54190;49.770;9.250;2023-03-22T06:16:44;7.50;99.90
67273;DHT22;54190;49.770;9.250;2023-03-22T06:19:10;7.50;99.90
67273;DHT22;54190;49.770;9.250;2023-03-22T06:21:35;7.60;99.90
67273;DHT22;54190;49.770;9.250;2023-03-22T06:24:01;7.60;99.90
67273;DHT22;54190;49.770;9.250;2023-03-22T06:26:27;7.60;99.90
67273;DHT22;54190;49.770;9.250;2023-03-22T06:28:53;7.50;99.90
67273;DHT22;54190;49.770;9.250;2023-03-22T06:31:19;7.60;99.90
67273;DHT22;54190;49.770;9.250;2023-03-22T06:33:52;7.60;99.90
67273;DHT22;54190;49.770;9.250;2023-03-22T06:36:24;7.60;99.90
67273;DHT22;54190;49.770;9.250;2023-03-22T06:39:03;7.60;99.90
67273;DHT22;54190;49.770;9.250;2023-03-22T06:41:29;7.60;99.90
67273;DHT22;54190;49.770;9.250;2023-03-22T06:43:55;7.60;99.90
67273;DHT22;54190;49.770;9.250;2023-03-22T06:46:39;7.60;99.90
67273;DHT22;54190;49.770;9.250;2023-03-22T06:49:12;7.70;99.90
67273;DHT22;54190;49.770;9.250;2023-03-22T06:51:39;7.70;99.90
67273;DHT22;54190;49.770;9.250;2023-03-22T06:54:05;7.80;99.90
67273;DHT22;54190;49.770;9.250;2023-03-22T06:56:30;7.80;99.90
67273;DHT22;54190;49.770;9.250;2023-03-22T06:58:56;7.90;99.90
67273;DHT22;54190;49.770;9.250;2023-03-22T07:01:23;8.00;99.90
67273;DHT22;54190;49.770;9.250;2023-03-22T07:03:49;8.10;99.90
67273;DHT22;54190;49.770;9.250;2023-03-22T07:06:20;8.20;99.90
67273;DHT22;54190;49.770;9.250;2023-03-22T07:08:48;8.20;99.90
67273;DHT22;54190;49.770;9.250;2023-03-22T07:11:23;8.40;99.90
67273;DHT22;54190;49.770;9.250;2023-03-22T07:13:56;8.60;99.90
67273;DHT22;54190;49.770;9.250;2023-03-22T07:16:24;8.70;99.90
67273;DHT22;54190;49.770;9.250;2023-03-22T07:18:52;8.70;99.90
67273;DHT22;54190;49.770;9.250;2023-03-22T07:21:19;8.80;99.90
67273;DHT22;54190;49.770;9.250;2023-03-22T07:23:49;8.90;99.90
67273;DHT22;54190;49.770;9.250;2023-03-22T07:26:17;9.00;99.90
67273;DHT22;54190;49.770;9.250;2023-03-22T07:28:46;9.10;99.90
67273;DHT22;54190;49.770;9.250;2023-03-22T07:31:14;9.30;99.90
67273;DHT22;54190;49.770;9.250;2023-03-22T07:33:46;9.40;99.90
67273;DHT22;54190;49.770;9.250;2023-03-22T07:36:13;9.50;99.90
67273;DHT22;54190;49.770;9.250;2023-03-22T07:38:39;9.60;99.90
67273;DHT22;54190;49.770;9.250;2023-03-22T07:41:10;9.60;99.90
67273;DHT22;54190;49.770;9.250;2023-03-22T07:43:50;9.70;99.90
67273;DHT22;54190;49.770;9.250;2023-03-22T07:46:19;9.80;99.90
67273;DHT22;54190;49.770;9.250;2023-03-22T07:49:08;9.90;99.90
67273;DHT22;54190;49.770;9.250;2023-03-22T07:51:53;10.00;99.90
67273;DHT22;54190;49.770;9.250;2023-03-22T07:54:19;10.10;99.90
67273;DHT22;54190;49.770;9.250;2023-03-22T07:56:45;10.20;99.90
67273;DHT22;54190;49.770;9.250;2023-03-22T07:59:14;10.30;99.90
67273;DHT22;54190;49.770;9.250;2023-03-22T08:01:41;10.50;99.90
67273;DHT22;54190;49.770;9.250;2023-03-22T08:04:17;10.60;99.90
67273;DHT22;54190;49.770;9.250;2023-03-22T08:06:55;10.70;99.90
67273;DHT22;54190;49.770;9.250;2023-03-22T08:09:24;10.90;99.90
67273;DHT22;54190;49.770;9.250;2023-03-22T08:11:50;11.10;99.90
67273;DHT22;54190;49.770;9.250;2023-03-22T08:14:16;11.20;99.90
67273;DHT22;54190;49.770;9.250;2023-03-22T08:16:42;11.40;99.90
67273;DHT22;54190;49.770;9.250;2023-03-22T08:19:12;11.40;99.90
67273;DHT22;54190;49.770;9.250;2023-03-22T08:21:40;11.50;99.90
67273;DHT22;54190;49.770;9.250;2023-03-22T08:24:12;11.50;99.90
67273;DHT22;54190;49.770;9.250;2023-03-22T08:26:58;11.50;99.90
67273;DHT22;54190;49.770;9.250;2023-03-22T08:29:40;11.50;99.90
67273;DHT22;54190;49.770;9.250;2023-03-22T08:32:06;11.60;99.90
67273;DHT22;54190;49.770;9.250;2023-03-22T08:34:38;11.70;99.90
67273;DHT22;54190;49.770;9.250;2023-03-22T08:37:05;11.80;99.90
67273;DHT22;54190;49.770;9.250;2023-03-22T08:39:32;11.80;99.90
67273;DHT22;54190;49.770;9.250;2023-03-22T08:42:15;11.90;99.90
67273;DHT22;54190;49.770;9.250;2023-03-22T08:44:44;11.90;99.90
67273;DHT22;54190;49.770;9.250;2023-03-22T08:47:10;11.90;99.90
67273;DHT22;54190;49.770;9.250;2023-03-22T08:49:38;12.00;99.90
67273;DHT22;54190;49.770;9.250;2023-03-22T08:52:11;12.10;99.90
67273;DHT22;54190;49.770;9.250;2023-03-22T08:54:53;12.10;99.90
67273;DHT22;54190;49.770;9.250;2023-03-22T08:57:39;12.10;99.90
67273;DHT22;54190;49.770;9.250;2023-03-22T09:00:24;12.20;99.90
67273;DHT22;54190;49.770;9.250;2023-03-22T09:02:58;12.20;99.90
67273;DHT22;54190;49.770;9.250;2023-03-22T09:05:24;12.20;99.90
67273;DHT22;54190;49.770;9.250;2023-03-22T09:07:52;12.30;99.90
67273;DHT22;54190;49.770;9.250;2023-03-22T09:10:28;12.40;99.90
67273;DHT22;54190;49.770;9.250;2023-03-22T09:12:55;12.30;99.90
67273;DHT22;54190;49.770;9.250;2023-03-22T09:15:21;12.30;99.90
67273;DHT22;54190;49.770;9.250;2023-03-22T09:18:02;12.30;99.90
67273;DHT22;54190;49.770;9.250;2023-03-22T09:20:28;12.20;99.90
67273;DHT22;54190;49.770;9.250;2023-03-22T09:22:54;12.20;99.90
67273;DHT22;54190;49.770;9.250;2023-03-22T09:25:20;12.30;99.90
67273;DHT22;54190;49.770;9.250;2023-03-22T09:27:48;12.50;99.90
67273;DHT22;54190;49.770;9.250;2023-03-22T09:30:15;12.60;99.90
67273;DHT22;54190;49.770;9.250;2023-03-22T09:32:41;12.70;99.90
67273;DHT22;54190;49.770;9.250;2023-03-22T09:35:09;12.60;99.90
67273;DHT22;54190;49.770;9.250;2023-03-22T09:37:48;12.60;99.90
67273;DHT22;54190;49.770;9.250;2023-03-22T09:40:18;12.50;99.90
67273;DHT22;54190;49.770;9.250;2023-03-22T09:42:50;12.50;99.90
67273;DHT22;54190;49.770;9.250;2023-03-22T09:45:24;12.60;99.90
67273;DHT22;54190;49.770;9.250;2023-03-22T09:47:58;12.80;99.90
67273;DHT22;54190;49.770;9.250;2023-03-22T09:50:30;12.80;99.90
67273;DHT22;54190;49.770;9.250;2023-03-22T09:52:57;12.90;99.90
67273;DHT22;54190;49.770;9.250;2023-03-22T10:01:03;13.30;99.90
67273;DHT22;54190;49.770;9.250;2023-03-22T10:06:27;13.60;99.90
67273;DHT22;54190;49.770;9.250;2023-03-22T10:09:14;13.90;99.90
67273;DHT22;54190;49.770;9.250;2023-03-22T10:11:45;13.90;99.90
67273;DHT22;54190;49.770;9.250;2023-03-22T10:14:34;13.90;99.50
67273;DHT22;54190;49.770;9.250;2023-03-22T10:17:07;14.00;99.90
67273;DHT22;54190;49.770;9.250;2023-03-22T10:19:47;14.20;99.90
67273;DHT22;54190;49.770;9.250;2023-03-22T10:22:16;14.30;99.10
67273;DHT22;54190;49.770;9.250;2023-03-22T10:24:45;14.30;99.90
67273;DHT22;54190;49.770;9.250;2023-03-22T10:27:16;14.50;99.80
67273;DHT22;54190;49.770;9.250;2023-03-22T10:29:52;14.60;99.50
67273;DHT22;54190;49.770;9.250;2023-03-22T10:32:44;14.70;99.50
67273;DHT22;54190;49.770;9.250;2023-03-22T10:35:15;14.90;99.00
67273;DHT22;54190;49.770;9.250;2023-03-22T10:37:43;14.90;98.40
67273;DHT22;54190;49.770;9.250;2023-03-22T10:40:18;15.00;97.40
67273;DHT22;54190;49.770;9.250;2023-03-22T10:42:54;15.20;97.90
67273;DHT22;54190;49.770;9.250;2023-03-22T10:45:23;15.10;97.60
67273;DHT22;54190;49.770;9.250;2023-03-22T10:48:24;15.10;97.70
67273;DHT22;54190;49.770;9.250;2023-03-22T10:50:51;14.90;97.10
67273;DHT22;54190;49.770;9.250;2023-03-22T10:55:53;15.00;98.10
67273;DHT22;54190;49.770;9.250;2023-03-22T10:58:21;15.10;98.70
67273;DHT22;54190;49.770;9.250;2023-03-22T11:00:52;15.00;97.90
67273;DHT22;54190;49.770;9.250;2023-03-22T11:06:14;14.80;98.20
67273;DHT22;54190;49.770;9.250;2023-03-22T11:08:46;14.80;98.20
67273;DHT22;54190;49.770;9.250;2023-03-22T11:11:16;14.90;98.50
67273;DHT22;54190;49.770;9.250;2023-03-22T11:13:42;15.00;99.10
67273;DHT22;54190;49.770;9.250;2023-03-22T11:16:16;14.90;98.60
67273;DHT22;54190;49.770;9.250;2023-03-22T11:18:43;15.00;97.40
67273;DHT22;54190;49.770;9.250;2023-03-22T11:21:10;14.80;97.90
67273;DHT22;54190;49.770;9.250;2023-03-22T11:23:39;14.80;98.40
67273;DHT22;54190;49.770;9.250;2023-03-22T11:26:11;14.80;98.20
67273;DHT22;54190;49.770;9.250;2023-03-22T11:28:49;14.80;98.60
67273;DHT22;54190;49.770;9.250;2023-03-22T11:31:19;14.90;98.90
67273;DHT22;54190;49.770;9.250;2023-03-22T11:33:55;14.90;97.50
67273;DHT22;54190;49.770;9.250;2023-03-22T11:36:21;15.00;98.20
67273;DHT22;54190;49.770;9.250;2023-03-22T11:38:47;15.30;98.30
67273;DHT22;54190;49.770;9.250;2023-03-22T11:41:21;15.40;98.00
67273;DHT22;54190;49.770;9.250;2023-03-22T11:44:01;15.50;97.40
67273;DHT22;54190;49.770;9.250;2023-03-22T11:46:28;15.50;96.90
67273;DHT22;54190;49.770;9.250;2023-03-22T11:49:02;15.40;97.10
67273;DHT22;54190;49.770;9.250;2023-03-22T11:51:31;15.40;97.40
67273;DHT22;54190;49.770;9.250;2023-03-22T11:56:33;15.40;97.60
67273;DHT22;54190;49.770;9.250;2023-03-22T11:59:06;15.50;96.90
67273;DHT22;54190;49.770;9.250;2023-03-22T12:01:41;15.60;97.70
67273;DHT22;54190;49.770;9.250;2023-03-22T12:04:14;15.60;96.90
67273;DHT22;54190;49.770;9.250;2023-03-22T12:06:41;15.60;95.60
67273;DHT22;54190;49.770;9.250;2023-03-22T12:12:08;15.60;97.10
67273;DHT22;54190;49.770;9.250;2023-03-22T12:15:00;15.50;96.90
67273;DHT22;54190;49.770;9.250;2023-03-22T12:22:35;15.30;96.90
67273;DHT22;54190;49.770;9.250;2023-03-22T12:25:02;15.40;97.40
67273;DHT22;54190;49.770;9.250;2023-03-22T12:27:36;15.50;96.60
67273;DHT22;54190;49.770;9.250;2023-03-22T12:32:40;15.30;96.90
67273;DHT22;54190;49.770;9.250;2023-03-22T12:35:17;15.40;96.80
67273;DHT22;54190;49.770;9.250;2023-03-22T12:37:48;15.50;96.80
67273;DHT22;54190;49.770;9.250;2023-03-22T12:40:24;15.70;97.00
67273;DHT22;54190;49.770;9.250;2023-03-22T12:45:27;16.20;96.10
67273;DHT22;54190;49.770;9.250;2023-03-22T12:48:05;16.40;96.50
67273;DHT22;54190;49.770;9.250;2023-03-22T12:50:37;16.50;95.90
67273;DHT22;54190;49.770;9.250;2023-03-22T12:53:04;16.70;96.40
67273;DHT22;54190;49.770;9.250;2023-03-22T12:55:33;16.70;94.20
67273;DHT22;54190;49.770;9.250;2023-03-22T12:58:00;16.70;93.70
67273;DHT22;54190;49.770;9.250;2023-03-22T13:00:37;16.70;94.50
67273;DHT22;54190;49.770;9.250;2023-03-22T13:03:25;16.80;94.80
67273;DHT22;54190;49.770;9.250;2023-03-22T13:06:27;16.80;94.60
67273;DHT22;54190;49.770;9.250;2023-03-22T13:09:14;16.90;93.60
67273;DHT22;54190;49.770;9.250;2023-03-22T13:20:28;16.60;93.40
67273;DHT22;54190;49.770;9.250;2023-03-22T13:27:58;17.20;93.90
67273;DHT22;54190;49.770;9.250;2023-03-22T13:30:50;17.40;90.40
67273;DHT22;54190;49.770;9.250;2023-03-22T13:33:24;17.50;92.00
67273;DHT22;54190;49.770;9.250;2023-03-22T13:35:59;17.40;90.00
67273;DHT22;54190;49.770;9.250;2023-03-22T13:38:37;17.30;92.10
67273;DHT22;54190;49.770;9.250;2023-03-22T13:41:21;17.30;91.20
67273;DHT22;54190;49.770;9.250;2023-03-22T13:43:51;17.20;88.90
67273;DHT22;54190;49.770;9.250;2023-03-22T13:54:02;17.10;88.40
67273;DHT22;54190;49.770;9.250;2023-03-22T13:59:12;17.00;89.60
67273;DHT22;54190;49.770;9.250;2023-03-22T14:01:44;17.20;89.40
67273;DHT22;54190;49.770;9.250;2023-03-22T14:04:17;17.30;89.30
67273;DHT22;54190;49.770;9.250;2023-03-22T14:06:53;17.30;86.00
67273;DHT22;54190;49.770;9.250;2023-03-22T14:09:34;17.50;89.90
67273;DHT22;54190;49.770;9.250;2023-03-22T14:12:12;17.80;87.80
67273;DHT22;54190;49.770;9.250;2023-03-22T14:14:45;18.00;88.80
67273;DHT22;54190;49.770;9.250;2023-03-22T14:19:51;18.30;84.30
67273;DHT22;54190;49.770;9.250;2023-03-22T14:22:26;18.50;82.20
67273;DHT22;54190;49.770;9.250;2023-03-22T14:24:56;18.60;82.20
67273;DHT22;54190;49.770;9.250;2023-03-22T14:27:24;18.70;78.70
67273;DHT22;54190;49.770;9.250;2023-03-22T14:29:49;18.70;77.70
67273;DHT22;54190;49.770;9.250;2023-03-22T14:32:22;18.60;77.30
67273;DHT22;54190;49.770;9.250;2023-03-22T14:34:51;18.60;74.80
67273;DHT22;54190;49.770;9.250;2023-03-22T14:37:18;18.70;76.20
67273;DHT22;54190;49.770;9.250;2023-03-22T14:39:46;18.80;74.90
67273;DHT22;54190;49.770;9.250;2023-03-22T14:42:27;18.80;77.30
67273;DHT22;54190;49.770;9.250;2023-03-22T14:45:00;18.90;76.10
67273;DHT22;54190;49.770;9.250;2023-03-22T14:47:28;18.90;73.20
67273;DHT22;54190;49.770;9.250;2023-03-22T14:50:02;18.90;74.70
67273;DHT22;54190;49.770;9.250;2023-03-22T14:52:33;18.90;75.00
67273;DHT22;54190;49.770;9.250;2023-03-22T14:55:03;18.80;74.80
67273;DHT22;54190;49.770;9.250;2023-03-22T14:57:34;18.70;75.80
67273;DHT22;54190;49.770;9.250;2023-03-22T15:00:02;18.70;74.30
67273;DHT22;54190;49.770;9.250;2023-03-22T15:03:28;18.60;70.30
67273;DHT22;54190;49.770;9.250;2023-03-22T15:05:53;18.50;72.40
67273;DHT22;54190;49.770;9.250;2023-03-22T15:10:54;18.30;73.30
67273;DHT22;54190;49.770;9.250;2023-03-22T15:13:22;18.10;74.40
67273;DHT22;54190;49.770;9.250;2023-03-22T15:15:48;17.90;75.20
67273;DHT22;54190;49.770;9.250;2023-03-22T15:18:20;17.80;77.20
67273;DHT22;54190;49.770;9.250;2023-03-22T15:20:48;17.80;79.80
67273;DHT22;54190;49.770;9.250;2023-03-22T15:23:37;17.80;79.20
67273;DHT22;54190;49.770;9.250;2023-03-22T15:26:27;17.80;77.00
67273;DHT22;54190;49.770;9.250;2023-03-22T15:28:58;17.70;78.40
67273;DHT22;54190;49.770;9.250;2023-03-22T15:31:29;17.70;79.80
67273;DHT22;54190;49.770;9.250;2023-03-22T15:34:03;17.70;77.80
67273;DHT22;54190;49.770;9.250;2023-03-22T15:36:32;17.80;79.40
67273;DHT22;54190;49.770;9.250;2023-03-22T15:39:31;17.80;78.90
67273;DHT22;54190;49.770;9.250;2023-03-22T15:41:56;17.90;80.40
67273;DHT22;54190;49.770;9.250;2023-03-22T15:44:32;17.80;79.60
67273;DHT22;54190;49.770;9.250;2023-03-22T15:47:00;17.80;78.10
67273;DHT22;54190;49.770;9.250;2023-03-22T15:49:44;17.70;75.30
67273;DHT22;54190;49.770;9.250;2023-03-22T15:57:20;17.70;77.60
67273;DHT22;54190;49.770;9.250;2023-03-22T16:00:00;17.70;75.90
67273;DHT22;54190;49.770;9.250;2023-03-22T16:02:32;17.60;75.60
67273;DHT22;54190;49.770;9.250;2023-03-22T16:04:58;17.60;76.30
67273;DHT22;54190;49.770;9.250;2023-03-22T16:07:27;17.50;74.00
67273;DHT22;54190;49.770;9.250;2023-03-22T16:09:54;17.50;74.20
67273;DHT22;54190;49.770;9.250;2023-03-22T16:12:21;17.40;72.90
67273;DHT22;54190;49.770;9.250;2023-03-22T16:14:47;17.40;74.40
67273;DHT22;54190;49.770;9.250;2023-03-22T16:17:17;17.30;71.10
67273;DHT22;54190;49.770;9.250;2023-03-22T16:19:43;17.30;70.40
67273;DHT22;54190;49.770;9.250;2023-03-22T16:22:11;17.20;68.40
67273;DHT22;54190;49.770;9.250;2023-03-22T16:24:38;17.20;73.30
67273;DHT22;54190;49.770;9.250;2023-03-22T16:27:11;17.20;73.50
67273;DHT22;54190;49.770;9.250;2023-03-22T16:29:37;17.10;70.20
67273;DHT22;54190;49.770;9.250;2023-03-22T16:32:03;17.00;72.40
67273;DHT22;54190;49.770;9.250;2023-03-22T16:34:29;17.00;71.40
67273;DHT22;54190;49.770;9.250;2023-03-22T16:36:55;16.90;70.90
67273;DHT22;54190;49.770;9.250;2023-03-22T16:39:22;16.90;71.60
67273;DHT22;54190;49.770;9.250;2023-03-22T16:41:48;16.90;72.80
67273;DHT22;54190;49.770;9.250;2023-03-22T16:44:17;16.80;72.60
67273;DHT22;54190;49.770;9.250;2023-03-22T16:46:43;16.80;72.70
67273;DHT22;54190;49.770;9.250;2023-03-22T16:49:09;16.80;75.60
67273;DHT22;54190;49.770;9.250;2023-03-22T16:51:36;16.80;77.70
67273;DHT22;54190;49.770;9.250;2023-03-22T16:54:02;16.80;78.40
67273;DHT22;54190;49.770;9.250;2023-03-22T16:56:28;16.70;77.80
67273;DHT22;54190;49.770;9.250;2023-03-22T16:58:57;16.60;77.10
67273;DHT22;54190;49.770;9.250;2023-03-22T17:01:24;16.60;75.70
67273;DHT22;54190;49.770;9.250;2023-03-22T17:03:50;16.60;76.70
67273;DHT22;54190;49.770;9.250;2023-03-22T17:06:21;16.60;77.70
67273;DHT22;54190;49.770;9.250;2023-03-22T17:08:48;16.60;75.30
67273;DHT22;54190;49.770;9.250;2023-03-22T17:11:24;16.50;74.20
67273;DHT22;54190;49.770;9.250;2023-03-22T17:13:54;16.50;75.90
67273;DHT22;54190;49.770;9.250;2023-03-22T17:16:21;16.40;76.30
67273;DHT22;54190;49.770;9.250;2023-03-22T17:18:47;16.40;76.10
67273;DHT22;54190;49.770;9.250;2023-03-22T17:21:15;16.30;75.90
67273;DHT22;54190;49.770;9.250;2023-03-22T17:23:44;16.30;76.90
67273;DHT22;54190;49.770;9.250;2023-03-22T17:26:11;16.30;77.80
67273;DHT22;54190;49.770;9.250;2023-03-22T17:28:37;16.20;76.70
67273;DHT22;54190;49.770;9.250;2023-03-22T17:31:04;16.20;77.80
67273;DHT22;54190;49.770;9.250;2023-03-22T17:33:33;16.20;78.20
67273;DHT22;54190;49.770;9.250;2023-03-22T17:35:59;16.10;77.60
67273;DHT22;54190;49.770;9.250;2023-03-22T17:38:26;16.10;77.90
67273;DHT22;54190;49.770;9.250;2023-03-22T17:40:52;16.00;78.20